Davis Monthan Air Force Base
KDMA : now visible

Airfield :











YOU CAN JOIN US ON...

 
LOGIN :

Register | Disclaimer

   EN    FR    IT 

 









Legend :    VFR   Marginal VFR   IFR   Intensive IFR   Very Intensive IFR
Visi :
Ceiling :
>= 8 km
>= 3000ft
5 to 8 km
1000 to 3000 ft
1500m to 5 km
500 to 1000 ft
800 to 1500m
200 to 500 ft
< 800m
< 200 ft
Symbols :   Thunderstorms  Fog  Heavy snow  Heavy precipitations  Wind > 20 kt






- Airport Elevation : 2704 ft


KDMA - Davis Monthan Air Force Base

CURRENT METAR :
  • 141958Z AUTO 30005KT 10SM CLR 22/04 A2989 RMK AO2 SLP099 T02190044 $

EXPIRED METARs :
  • 141858Z AUTO 00000KT 10SM CLR 21/05 A2993 RMK AO2 SLP113 T02050045 $

TAF TAF KDMA
Valid from the 14 at 14:00 until the 15 at 20:00 UTC


141414Z 1414/1520 15006KT 9999 SKC QNH2996INS
BECMG 1419/1420 27006KT 9999 SKC QNH2990INS
BECMG 1423/1424 26006KT 9999 SKC QNH2985INS
BECMG 1505/1506 17005KT 9999 FEW160 QNH2983INS
BECMG 1507/1508 17005KT 9999 SCT120 QNH2981INS
BECMG 1512/1513 20005KT 9999 SKC QNH2980INS TX22/1421Z TN08/1512Z



MET'MAP, your aeronautical weather chart ! - Copyright ORBIFLY December 2007 - Disclaimer

ORBIFLY MET'MAP TEAM :

Programming & Development : Alexandra Zaïnal
Concept & original design : Baudouin d'Aumeries
Assistance for programming : Marc-Olivier Méhu
Technical & hardware support : Manuel Goepfert

Contact : metmap@orbifly.com




SOURCES & CREDITS :

   NOAA       Earth
Advisory